sensor_id;sensor_type;location;lat;lon;timestamp;P1;durP1;ratioP1;P2;durP2;ratioP2
74535;SDS011;63013;51.104;-115.370;2023-03-14T00:01:16;0.90;;;0.40;;
74535;SDS011;63013;51.104;-115.370;2023-03-14T00:03:46;0.70;;;0.40;;
74535;SDS011;63013;51.104;-115.370;2023-03-14T00:06:14;0.80;;;0.50;;
74535;SDS011;63013;51.104;-115.370;2023-03-14T00:08:45;0.50;;;0.30;;
74535;SDS011;63013;51.104;-115.370;2023-03-14T00:11:18;0.80;;;0.40;;
74535;SDS011;63013;51.104;-115.370;2023-03-14T00:13:50;0.50;;;0.30;;
74535;SDS011;63013;51.104;-115.370;2023-03-14T00:16:19;0.40;;;0.30;;
74535;SDS011;63013;51.104;-115.370;2023-03-14T00:18:46;0.40;;;0.40;;
74535;SDS011;63013;51.104;-115.370;2023-03-14T00:21:14;0.60;;;0.30;;
74535;SDS011;63013;51.104;-115.370;2023-03-14T00:23:42;1.10;;;0.40;;
74535;SDS011;63013;51.104;-115.370;2023-03-14T00:26:12;1.10;;;0.40;;
74535;SDS011;63013;51.104;-115.370;2023-03-14T00:28:43;0.50;;;0.50;;
74535;SDS011;63013;51.104;-115.370;2023-03-14T00:31:15;1.10;;;0.40;;
74535;SDS011;63013;51.104;-115.370;2023-03-14T00:33:43;1.00;;;0.30;;
74535;SDS011;63013;51.104;-115.370;2023-03-14T00:36:16;0.90;;;0.40;;
74535;SDS011;63013;51.104;-115.370;2023-03-14T00:38:48;1.70;;;0.50;;
74535;SDS011;63013;51.104;-115.370;2023-03-14T00:41:19;0.90;;;0.50;;
74535;SDS011;63013;51.104;-115.370;2023-03-14T00:43:49;0.50;;;0.40;;
74535;SDS011;63013;51.104;-115.370;2023-03-14T00:46:16;0.60;;;0.30;;
74535;SDS011;63013;51.104;-115.370;2023-03-14T00:48:47;1.70;;;0.40;;
74535;SDS011;63013;51.104;-115.370;2023-03-14T00:51:14;0.80;;;0.40;;
74535;SDS011;63013;51.104;-115.370;2023-03-14T00:53:42;0.90;;;0.50;;
74535;SDS011;63013;51.104;-115.370;2023-03-14T00:56:11;0.50;;;0.40;;
74535;SDS011;63013;51.104;-115.370;2023-03-14T00:58:39;0.40;;;0.40;;
74535;SDS011;63013;51.104;-115.370;2023-03-14T01:01:13;0.60;;;0.50;;
74535;SDS011;63013;51.104;-115.370;2023-03-14T01:03:42;0.30;;;0.30;;
74535;SDS011;63013;51.104;-115.370;2023-03-14T01:06:21;0.50;;;0.30;;
74535;SDS011;63013;51.104;-115.370;2023-03-14T01:08:50;0.70;;;0.30;;
74535;SDS011;63013;51.104;-115.370;2023-03-14T01:11:21;1.40;;;0.50;;
74535;SDS011;63013;51.104;-115.370;2023-03-14T01:13:52;1.20;;;0.30;;
74535;SDS011;63013;51.104;-115.370;2023-03-14T01:16:22;0.30;;;0.30;;
74535;SDS011;63013;51.104;-115.370;2023-03-14T01:18:50;0.30;;;0.30;;
74535;SDS011;63013;51.104;-115.370;2023-03-14T01:21:25;0.90;;;0.30;;
74535;SDS011;63013;51.104;-115.370;2023-03-14T01:23:59;0.80;;;0.50;;
74535;SDS011;63013;51.104;-115.370;2023-03-14T01:26:35;0.60;;;0.40;;
74535;SDS011;63013;51.104;-115.370;2023-03-14T01:29:03;6.20;;;1.50;;
74535;SDS011;63013;51.104;-115.370;2023-03-14T01:31:30;5.40;;;1.50;;
74535;SDS011;63013;51.104;-115.370;2023-03-14T01:33:57;3.30;;;1.10;;
74535;SDS011;63013;51.104;-115.370;2023-03-14T01:36:24;3.20;;;1.00;;
74535;SDS011;63013;51.104;-115.370;2023-03-14T01:38:52;4.00;;;1.10;;
74535;SDS011;63013;51.104;-115.370;2023-03-14T01:41:22;3.10;;;0.70;;
74535;SDS011;63013;51.104;-115.370;2023-03-14T01:43:51;4.10;;;1.00;;
74535;SDS011;63013;51.104;-115.370;2023-03-14T01:49:32;3.40;;;0.80;;
74535;SDS011;63013;51.104;-115.370;2023-03-14T01:52:15;2.50;;;0.90;;
74535;SDS011;63013;51.104;-115.370;2023-03-14T01:54:58;2.00;;;0.60;;
74535;SDS011;63013;51.104;-115.370;2023-03-14T01:57:33;3.40;;;0.90;;
74535;SDS011;63013;51.104;-115.370;2023-03-14T02:00:13;3.70;;;0.80;;
74535;SDS011;63013;51.104;-115.370;2023-03-14T02:02:50;1.80;;;0.70;;
74535;SDS011;63013;51.104;-115.370;2023-03-14T02:05:25;1.40;;;0.60;;
74535;SDS011;63013;51.104;-115.370;2023-03-14T02:08:01;1.80;;;0.70;;
74535;SDS011;63013;51.104;-115.370;2023-03-14T02:10:35;2.90;;;0.70;;
74535;SDS011;63013;51.104;-115.370;2023-03-14T02:13:06;1.30;;;0.60;;
74535;SDS011;63013;51.104;-115.370;2023-03-14T02:15:34;3.00;;;0.80;;
74535;SDS011;63013;51.104;-115.370;2023-03-14T02:18:02;3.80;;;0.90;;
74535;SDS011;63013;51.104;-115.370;2023-03-14T02:20:34;1.90;;;0.70;;
74535;SDS011;63013;51.104;-115.370;2023-03-14T02:23:12;2.90;;;0.70;;
74535;SDS011;63013;51.104;-115.370;2023-03-14T02:25:51;2.00;;;0.70;;
74535;SDS011;63013;51.104;-115.370;2023-03-14T02:28:35;2.00;;;0.60;;
74535;SDS011;63013;51.104;-115.370;2023-03-14T02:31:02;1.60;;;0.70;;
74535;SDS011;63013;51.104;-115.370;2023-03-14T02:33:29;2.10;;;0.70;;
74535;SDS011;63013;51.104;-115.370;2023-03-14T02:35:59;2.30;;;0.70;;
74535;SDS011;63013;51.104;-115.370;2023-03-14T02:38:45;1.50;;;0.50;;
74535;SDS011;63013;51.104;-115.370;2023-03-14T02:41:14;2.50;;;0.60;;
74535;SDS011;63013;51.104;-115.370;2023-03-14T02:43:41;1.50;;;0.50;;
74535;SDS011;63013;51.104;-115.370;2023-03-14T02:46:12;1.90;;;0.70;;
74535;SDS011;63013;51.104;-115.370;2023-03-14T02:48:53;1.20;;;0.60;;
74535;SDS011;63013;51.104;-115.370;2023-03-14T02:51:27;1.80;;;0.70;;
74535;SDS011;63013;51.104;-115.370;2023-03-14T02:53:56;0.90;;;0.50;;
74535;SDS011;63013;51.104;-115.370;2023-03-14T02:56:23;1.40;;;0.50;;
74535;SDS011;63013;51.104;-115.370;2023-03-14T02:58:50;3.70;;;0.70;;
74535;SDS011;63013;51.104;-115.370;2023-03-14T03:01:17;1.80;;;0.50;;
74535;SDS011;63013;51.104;-115.370;2023-03-14T03:03:44;2.20;;;0.70;;
74535;SDS011;63013;51.104;-115.370;2023-03-14T03:06:11;2.70;;;0.70;;
74535;SDS011;63013;51.104;-115.370;2023-03-14T03:08:38;2.40;;;0.50;;
74535;SDS011;63013;51.104;-115.370;2023-03-14T03:11:06;2.70;;;0.80;;
74535;SDS011;63013;51.104;-115.370;2023-03-14T03:13:34;2.00;;;0.60;;
74535;SDS011;63013;51.104;-115.370;2023-03-14T03:16:01;2.10;;;0.60;;
74535;SDS011;63013;51.104;-115.370;2023-03-14T03:18:29;2.40;;;0.60;;
74535;SDS011;63013;51.104;-115.370;2023-03-14T03:21:00;2.50;;;0.60;;
74535;SDS011;63013;51.104;-115.370;2023-03-14T03:23:28;2.70;;;0.60;;
74535;SDS011;63013;51.104;-115.370;2023-03-14T03:25:55;1.50;;;0.50;;
74535;SDS011;63013;51.104;-115.370;2023-03-14T03:28:23;3.30;;;0.70;;
74535;SDS011;63013;51.104;-115.370;2023-03-14T03:30:49;2.30;;;0.50;;
74535;SDS011;63013;51.104;-115.370;2023-03-14T03:33:16;1.40;;;0.50;;
74535;SDS011;63013;51.104;-115.370;2023-03-14T03:35:45;2.00;;;0.60;;
74535;SDS011;63013;51.104;-115.370;2023-03-14T03:38:15;1.70;;;0.60;;
74535;SDS011;63013;51.104;-115.370;2023-03-14T03:40:43;1.50;;;0.60;;
74535;SDS011;63013;51.104;-115.370;2023-03-14T03:43:10;1.70;;;0.60;;
74535;SDS011;63013;51.104;-115.370;2023-03-14T03:45:37;2.30;;;0.50;;
74535;SDS011;63013;51.104;-115.370;2023-03-14T03:48:04;1.30;;;0.50;;
74535;SDS011;63013;51.104;-115.370;2023-03-14T03:50:32;0.90;;;0.40;;
74535;SDS011;63013;51.104;-115.370;2023-03-14T03:52:59;2.40;;;0.50;;
74535;SDS011;63013;51.104;-115.370;2023-03-14T03:55:26;1.40;;;0.50;;
74535;SDS011;63013;51.104;-115.370;2023-03-14T03:58:02;2.40;;;0.60;;
74535;SDS011;63013;51.104;-115.370;2023-03-14T04:00:29;1.70;;;0.60;;
74535;SDS011;63013;51.104;-115.370;2023-03-14T04:02:59;2.30;;;0.70;;
74535;SDS011;63013;51.104;-115.370;2023-03-14T04:05:26;1.40;;;0.50;;
74535;SDS011;63013;51.104;-115.370;2023-03-14T04:07:53;0.60;;;0.40;;
74535;SDS011;63013;51.104;-115.370;2023-03-14T04:10:20;1.80;;;0.40;;
74535;SDS011;63013;51.104;-115.370;2023-03-14T04:12:47;1.50;;;0.60;;
74535;SDS011;63013;51.104;-115.370;2023-03-14T04:15:14;2.00;;;0.60;;
74535;SDS011;63013;51.104;-115.370;2023-03-14T04:17:42;0.90;;;0.50;;
74535;SDS011;63013;51.104;-115.370;2023-03-14T04:20:09;1.00;;;0.60;;
74535;SDS011;63013;51.104;-115.370;2023-03-14T04:22:38;1.30;;;0.60;;
74535;SDS011;63013;51.104;-115.370;2023-03-14T04:25:06;1.30;;;0.60;;
74535;SDS011;63013;51.104;-115.370;2023-03-14T04:27:33;1.30;;;0.60;;
74535;SDS011;63013;51.104;-115.370;2023-03-14T04:30:00;0.90;;;0.40;;
74535;SDS011;63013;51.104;-115.370;2023-03-14T04:32:27;0.80;;;0.50;;
74535;SDS011;63013;51.104;-115.370;2023-03-14T04:34:54;1.70;;;0.60;;
74535;SDS011;63013;51.104;-115.370;2023-03-14T04:37:22;1.30;;;0.40;;
74535;SDS011;63013;51.104;-115.370;2023-03-14T04:39:48;1.70;;;0.60;;
74535;SDS011;63013;51.104;-115.370;2023-03-14T04:42:16;1.30;;;0.40;;
74535;SDS011;63013;51.104;-115.370;2023-03-14T04:44:43;1.00;;;0.60;;
74535;SDS011;63013;51.104;-115.370;2023-03-14T04:47:10;1.30;;;0.60;;
74535;SDS011;63013;51.104;-115.370;2023-03-14T04:49:37;1.50;;;0.50;;
74535;SDS011;63013;51.104;-115.370;2023-03-14T04:52:04;0.90;;;0.40;;
74535;SDS011;63013;51.104;-115.370;2023-03-14T04:54:31;1.00;;;0.50;;
74535;SDS011;63013;51.104;-115.370;2023-03-14T04:56:58;0.90;;;0.40;;
74535;SDS011;63013;51.104;-115.370;2023-03-14T04:59:25;0.90;;;0.40;;
74535;SDS011;63013;51.104;-115.370;2023-03-14T05:01:52;1.30;;;0.50;;
74535;SDS011;63013;51.104;-115.370;2023-03-14T05:04:19;1.20;;;0.50;;
74535;SDS011;63013;51.104;-115.370;2023-03-14T05:06:46;1.40;;;0.50;;
74535;SDS011;63013;51.104;-115.370;2023-03-14T05:09:13;1.50;;;0.50;;
74535;SDS011;63013;51.104;-115.370;2023-03-14T05:11:41;1.10;;;0.40;;
74535;SDS011;63013;51.104;-115.370;2023-03-14T05:14:08;1.10;;;0.40;;
74535;SDS011;63013;51.104;-115.370;2023-03-14T05:16:35;1.70;;;0.50;;
74535;SDS011;63013;51.104;-115.370;2023-03-14T05:19:02;1.90;;;0.50;;
74535;SDS011;63013;51.104;-115.370;2023-03-14T05:21:29;0.40;;;0.30;;
74535;SDS011;63013;51.104;-115.370;2023-03-14T05:23:57;0.80;;;0.50;;
74535;SDS011;63013;51.104;-115.370;2023-03-14T05:26:24;0.70;;;0.50;;
74535;SDS011;63013;51.104;-115.370;2023-03-14T05:28:51;1.10;;;0.50;;
74535;SDS011;63013;51.104;-115.370;2023-03-14T05:31:18;0.70;;;0.40;;
74535;SDS011;63013;51.104;-115.370;2023-03-14T05:33:46;1.10;;;0.40;;
74535;SDS011;63013;51.104;-115.370;2023-03-14T05:36:13;1.40;;;0.40;;
74535;SDS011;63013;51.104;-115.370;2023-03-14T05:38:40;1.30;;;0.40;;
74535;SDS011;63013;51.104;-115.370;2023-03-14T05:41:07;1.90;;;0.50;;
74535;SDS011;63013;51.104;-115.370;2023-03-14T05:43:35;0.90;;;0.50;;
74535;SDS011;63013;51.104;-115.370;2023-03-14T05:46:02;2.10;;;0.50;;
74535;SDS011;63013;51.104;-115.370;2023-03-14T05:48:29;1.00;;;0.40;;
74535;SDS011;63013;51.104;-115.370;2023-03-14T05:50:57;1.10;;;0.50;;
74535;SDS011;63013;51.104;-115.370;2023-03-14T05:53:25;0.90;;;0.50;;
74535;SDS011;63013;51.104;-115.370;2023-03-14T05:55:53;1.20;;;0.40;;
74535;SDS011;63013;51.104;-115.370;2023-03-14T05:58:21;0.90;;;0.50;;
74535;SDS011;63013;51.104;-115.370;2023-03-14T06:00:49;0.70;;;0.40;;
74535;SDS011;63013;51.104;-115.370;2023-03-14T06:03:16;0.80;;;0.60;;
74535;SDS011;63013;51.104;-115.370;2023-03-14T06:05:44;1.70;;;0.50;;
74535;SDS011;63013;51.104;-115.370;2023-03-14T06:08:11;1.00;;;0.50;;
74535;SDS011;63013;51.104;-115.370;2023-03-14T06:10:38;1.70;;;0.50;;
74535;SDS011;63013;51.104;-115.370;2023-03-14T06:13:05;1.70;;;0.60;;
74535;SDS011;63013;51.104;-115.370;2023-03-14T06:15:32;1.30;;;0.40;;
74535;SDS011;63013;51.104;-115.370;2023-03-14T06:17:59;1.60;;;0.40;;
74535;SDS011;63013;51.104;-115.370;2023-03-14T06:20:26;3.00;;;0.50;;
74535;SDS011;63013;51.104;-115.370;2023-03-14T06:22:52;1.10;;;0.50;;
74535;SDS011;63013;51.104;-115.370;2023-03-14T06:25:19;0.80;;;0.40;;
74535;SDS011;63013;51.104;-115.370;2023-03-14T06:27:47;0.90;;;0.50;;
74535;SDS011;63013;51.104;-115.370;2023-03-14T06:30:14;0.90;;;0.50;;
74535;SDS011;63013;51.104;-115.370;2023-03-14T06:32:41;0.70;;;0.40;;
74535;SDS011;63013;51.104;-115.370;2023-03-14T06:35:08;0.60;;;0.30;;
74535;SDS011;63013;51.104;-115.370;2023-03-14T06:37:36;1.10;;;0.40;;
74535;SDS011;63013;51.104;-115.370;2023-03-14T06:40:03;0.80;;;0.30;;
74535;SDS011;63013;51.104;-115.370;2023-03-14T06:42:31;1.60;;;0.40;;
74535;SDS011;63013;51.104;-115.370;2023-03-14T06:44:58;1.60;;;0.40;;
74535;SDS011;63013;51.104;-115.370;2023-03-14T06:47:25;0.60;;;0.40;;
74535;SDS011;63013;51.104;-115.370;2023-03-14T06:49:52;1.20;;;0.50;;
74535;SDS011;63013;51.104;-115.370;2023-03-14T06:52:20;1.20;;;0.40;;
74535;SDS011;63013;51.104;-115.370;2023-03-14T06:54:47;1.40;;;0.50;;
74535;SDS011;63013;51.104;-115.370;2023-03-14T06:57:14;0.70;;;0.50;;
74535;SDS011;63013;51.104;-115.370;2023-03-14T06:59:41;1.40;;;0.50;;
74535;SDS011;63013;51.104;-115.370;2023-03-14T07:02:11;0.70;;;0.40;;
74535;SDS011;63013;51.104;-115.370;2023-03-14T07:04:38;0.80;;;0.50;;
74535;SDS011;63013;51.104;-115.370;2023-03-14T07:07:06;0.90;;;0.40;;
74535;SDS011;63013;51.104;-115.370;2023-03-14T07:09:33;1.40;;;0.60;;
74535;SDS011;63013;51.104;-115.370;2023-03-14T07:12:01;0.80;;;0.30;;
74535;SDS011;63013;51.104;-115.370;2023-03-14T07:14:30;1.20;;;0.40;;
74535;SDS011;63013;51.104;-115.370;2023-03-14T07:16:57;1.30;;;0.50;;
74535;SDS011;63013;51.104;-115.370;2023-03-14T07:19:24;1.30;;;0.50;;
74535;SDS011;63013;51.104;-115.370;2023-03-14T07:21:52;0.70;;;0.40;;
74535;SDS011;63013;51.104;-115.370;2023-03-14T07:24:20;1.30;;;0.50;;
74535;SDS011;63013;51.104;-115.370;2023-03-14T07:26:47;0.60;;;0.40;;
74535;SDS011;63013;51.104;-115.370;2023-03-14T07:29:18;1.50;;;0.40;;
74535;SDS011;63013;51.104;-115.370;2023-03-14T07:31:45;2.50;;;0.50;;
74535;SDS011;63013;51.104;-115.370;2023-03-14T07:34:12;0.70;;;0.30;;
74535;SDS011;63013;51.104;-115.370;2023-03-14T07:36:39;1.30;;;0.40;;
74535;SDS011;63013;51.104;-115.370;2023-03-14T07:39:09;0.60;;;0.40;;
74535;SDS011;63013;51.104;-115.370;2023-03-14T07:41:36;1.10;;;0.50;;
74535;SDS011;63013;51.104;-115.370;2023-03-14T07:44:03;0.40;;;0.30;;
74535;SDS011;63013;51.104;-115.370;2023-03-14T07:46:30;0.70;;;0.40;;
74535;SDS011;63013;51.104;-115.370;2023-03-14T07:48:57;0.60;;;0.30;;
74535;SDS011;63013;51.104;-115.370;2023-03-14T07:51:24;1.20;;;0.50;;
74535;SDS011;63013;51.104;-115.370;2023-03-14T07:53:51;0.80;;;0.30;;
74535;SDS011;63013;51.104;-115.370;2023-03-14T07:56:19;1.30;;;0.60;;
74535;SDS011;63013;51.104;-115.370;2023-03-14T07:58:46;0.90;;;0.30;;
74535;SDS011;63013;51.104;-115.370;2023-03-14T08:01:13;0.80;;;0.40;;
74535;SDS011;63013;51.104;-115.370;2023-03-14T08:03:41;0.40;;;0.30;;
74535;SDS011;63013;51.104;-115.370;2023-03-14T08:06:08;0.60;;;0.40;;
74535;SDS011;63013;51.104;-115.370;2023-03-14T08:08:35;0.60;;;0.30;;
74535;SDS011;63013;51.104;-115.370;2023-03-14T08:11:06;0.60;;;0.30;;
74535;SDS011;63013;51.104;-115.370;2023-03-14T08:13:37;1.10;;;0.40;;
74535;SDS011;63013;51.104;-115.370;2023-03-14T08:16:08;0.70;;;0.40;;
74535;SDS011;63013;51.104;-115.370;2023-03-14T08:18:35;0.70;;;0.50;;
74535;SDS011;63013;51.104;-115.370;2023-03-14T08:21:02;1.60;;;0.40;;
74535;SDS011;63013;51.104;-115.370;2023-03-14T08:23:29;0.40;;;0.40;;
74535;SDS011;63013;51.104;-115.370;2023-03-14T08:25:56;0.50;;;0.30;;
74535;SDS011;63013;51.104;-115.370;2023-03-14T08:28:26;0.80;;;0.40;;
74535;SDS011;63013;51.104;-115.370;2023-03-14T08:30:57;0.90;;;0.40;;
74535;SDS011;63013;51.104;-115.370;2023-03-14T08:33:25;1.30;;;0.40;;
74535;SDS011;63013;51.104;-115.370;2023-03-14T08:35:57;0.80;;;0.40;;
74535;SDS011;63013;51.104;-115.370;2023-03-14T08:38:27;0.80;;;0.40;;
74535;SDS011;63013;51.104;-115.370;2023-03-14T08:40:58;0.50;;;0.30;;
74535;SDS011;63013;51.104;-115.370;2023-03-14T08:43:27;0.50;;;0.40;;
74535;SDS011;63013;51.104;-115.370;2023-03-14T08:45:58;0.60;;;0.40;;
74535;SDS011;63013;51.104;-115.370;2023-03-14T08:48:26;1.10;;;0.50;;
74535;SDS011;63013;51.104;-115.370;2023-03-14T08:50:52;0.60;;;0.50;;
74535;SDS011;63013;51.104;-115.370;2023-03-14T08:53:20;0.70;;;0.40;;
74535;SDS011;63013;51.104;-115.370;2023-03-14T08:55:53;0.80;;;0.50;;
74535;SDS011;63013;51.104;-115.370;2023-03-14T08:58:20;0.90;;;0.60;;
74535;SDS011;63013;51.104;-115.370;2023-03-14T09:00:49;0.50;;;0.40;;
74535;SDS011;63013;51.104;-115.370;2023-03-14T09:03:17;1.20;;;0.40;;
74535;SDS011;63013;51.104;-115.370;2023-03-14T09:05:43;0.60;;;0.40;;
74535;SDS011;63013;51.104;-115.370;2023-03-14T09:08:11;0.90;;;0.50;;
74535;SDS011;63013;51.104;-115.370;2023-03-14T09:10:38;1.10;;;0.40;;
74535;SDS011;63013;51.104;-115.370;2023-03-14T09:13:05;0.80;;;0.40;;
74535;SDS011;63013;51.104;-115.370;2023-03-14T09:15:32;1.00;;;0.60;;
74535;SDS011;63013;51.104;-115.370;2023-03-14T09:18:00;1.00;;;0.60;;
74535;SDS011;63013;51.104;-115.370;2023-03-14T09:20:27;0.80;;;0.50;;
74535;SDS011;63013;51.104;-115.370;2023-03-14T09:22:54;0.90;;;0.40;;
74535;SDS011;63013;51.104;-115.370;2023-03-14T09:25:21;0.60;;;0.40;;
74535;SDS011;63013;51.104;-115.370;2023-03-14T09:27:48;1.00;;;0.40;;
74535;SDS011;63013;51.104;-115.370;2023-03-14T09:30:15;0.30;;;0.30;;
74535;SDS011;63013;51.104;-115.370;2023-03-14T09:32:43;0.80;;;0.50;;
74535;SDS011;63013;51.104;-115.370;2023-03-14T09:35:10;0.80;;;0.40;;
74535;SDS011;63013;51.104;-115.370;2023-03-14T09:37:37;0.90;;;0.60;;
74535;SDS011;63013;51.104;-115.370;2023-03-14T09:40:05;0.60;;;0.40;;
74535;SDS011;63013;51.104;-115.370;2023-03-14T09:42:38;0.90;;;0.40;;
74535;SDS011;63013;51.104;-115.370;2023-03-14T09:45:31;0.90;;;0.40;;
74535;SDS011;63013;51.104;-115.370;2023-03-14T09:48:08;0.60;;;0.30;;
74535;SDS011;63013;51.104;-115.370;2023-03-14T09:50:51;0.80;;;0.30;;
74535;SDS011;63013;51.104;-115.370;2023-03-14T09:53:27;0.70;;;0.50;;
74535;SDS011;63013;51.104;-115.370;2023-03-14T09:56:24;0.60;;;0.40;;
74535;SDS011;63013;51.104;-115.370;2023-03-14T09:59:00;0.70;;;0.40;;
74535;SDS011;63013;51.104;-115.370;2023-03-14T10:01:31;0.40;;;0.40;;
74535;SDS011;63013;51.104;-115.370;2023-03-14T10:04:11;1.10;;;0.40;;
74535;SDS011;63013;51.104;-115.370;2023-03-14T10:06:42;0.70;;;0.40;;
74535;SDS011;63013;51.104;-115.370;2023-03-14T10:09:20;0.80;;;0.40;;
74535;SDS011;63013;51.104;-115.370;2023-03-14T10:11:56;0.40;;;0.40;;
74535;SDS011;63013;51.104;-115.370;2023-03-14T10:14:33;0.70;;;0.40;;
74535;SDS011;63013;51.104;-115.370;2023-03-14T10:17:11;0.70;;;0.40;;
74535;SDS011;63013;51.104;-115.370;2023-03-14T10:19:59;1.20;;;0.40;;
74535;SDS011;63013;51.104;-115.370;2023-03-14T10:22:30;0.60;;;0.40;;
74535;SDS011;63013;51.104;-115.370;2023-03-14T10:25:39;0.60;;;0.40;;
74535;SDS011;63013;51.104;-115.370;2023-03-14T10:28:27;0.50;;;0.30;;
74535;SDS011;63013;51.104;-115.370;2023-03-14T10:30:57;1.10;;;0.50;;
74535;SDS011;63013;51.104;-115.370;2023-03-14T10:33:27;1.00;;;0.50;;
74535;SDS011;63013;51.104;-115.370;2023-03-14T10:36:01;0.60;;;0.40;;
74535;SDS011;63013;51.104;-115.370;2023-03-14T10:38:46;0.50;;;0.40;;
74535;SDS011;63013;51.104;-115.370;2023-03-14T10:41:22;0.90;;;0.40;;
74535;SDS011;63013;51.104;-115.370;2023-03-14T10:43:56;0.90;;;0.50;;
74535;SDS011;63013;51.104;-115.370;2023-03-14T10:46:26;0.50;;;0.30;;
74535;SDS011;63013;51.104;-115.370;2023-03-14T10:48:59;0.50;;;0.40;;
74535;SDS011;63013;51.104;-115.370;2023-03-14T10:51:32;0.80;;;0.50;;
74535;SDS011;63013;51.104;-115.370;2023-03-14T10:54:02;0.50;;;0.40;;
74535;SDS011;63013;51.104;-115.370;2023-03-14T10:56:38;1.30;;;0.40;;
74535;SDS011;63013;51.104;-115.370;2023-03-14T10:59:13;0.40;;;0.40;;
74535;SDS011;63013;51.104;-115.370;2023-03-14T11:01:53;1.10;;;0.50;;
74535;SDS011;63013;51.104;-115.370;2023-03-14T11:07:38;0.90;;;0.50;;
74535;SDS011;63013;51.104;-115.370;2023-03-14T11:13:08;0.80;;;0.40;;
74535;SDS011;63013;51.104;-115.370;2023-03-14T11:16:27;0.50;;;0.40;;
74535;SDS011;63013;51.104;-115.370;2023-03-14T11:19:35;0.70;;;0.40;;
74535;SDS011;63013;51.104;-115.370;2023-03-14T11:28:36;1.00;;;0.40;;
74535;SDS011;63013;51.104;-115.370;2023-03-14T11:31:26;1.00;;;0.50;;
74535;SDS011;63013;51.104;-115.370;2023-03-14T11:34:01;0.50;;;0.40;;
74535;SDS011;63013;51.104;-115.370;2023-03-14T11:36:40;0.70;;;0.40;;
74535;SDS011;63013;51.104;-115.370;2023-03-14T11:39:17;0.90;;;0.50;;
74535;SDS011;63013;51.104;-115.370;2023-03-14T11:41:49;1.10;;;0.50;;
74535;SDS011;63013;51.104;-115.370;2023-03-14T11:44:22;0.60;;;0.40;;
74535;SDS011;63013;51.104;-115.370;2023-03-14T11:47:08;1.50;;;0.50;;
74535;SDS011;63013;51.104;-115.370;2023-03-14T11:52:58;0.90;;;0.60;;
74535;SDS011;63013;51.104;-115.370;2023-03-14T11:55:37;0.40;;;0.30;;
74535;SDS011;63013;51.104;-115.370;2023-03-14T12:00:49;0.50;;;0.30;;
74535;SDS011;63013;51.104;-115.370;2023-03-14T12:06:24;0.60;;;0.30;;
74535;SDS011;63013;51.104;-115.370;2023-03-14T12:09:13;1.30;;;0.40;;
74535;SDS011;63013;51.104;-115.370;2023-03-14T12:11:54;0.70;;;0.60;;
74535;SDS011;63013;51.104;-115.370;2023-03-14T12:14:32;0.90;;;0.40;;
74535;SDS011;63013;51.104;-115.370;2023-03-14T12:19:48;0.50;;;0.40;;
74535;SDS011;63013;51.104;-115.370;2023-03-14T12:23:09;0.80;;;0.50;;
74535;SDS011;63013;51.104;-115.370;2023-03-14T12:25:32;0.50;;;0.40;;
74535;SDS011;63013;51.104;-115.370;2023-03-14T12:30:47;0.60;;;0.40;;
74535;SDS011;63013;51.104;-115.370;2023-03-14T12:38:41;0.70;;;0.40;;
74535;SDS011;63013;51.104;-115.370;2023-03-14T12:41:51;0.60;;;0.50;;
74535;SDS011;63013;51.104;-115.370;2023-03-14T12:47:00;0.80;;;0.30;;
74535;SDS011;63013;51.104;-115.370;2023-03-14T12:49:45;0.60;;;0.40;;
74535;SDS011;63013;51.104;-115.370;2023-03-14T12:52:21;0.60;;;0.40;;
74535;SDS011;63013;51.104;-115.370;2023-03-14T12:55:08;0.90;;;0.50;;
74535;SDS011;63013;51.104;-115.370;2023-03-14T13:00:34;0.80;;;0.40;;
74535;SDS011;63013;51.104;-115.370;2023-03-14T13:03:22;0.50;;;0.40;;
74535;SDS011;63013;51.104;-115.370;2023-03-14T13:06:01;0.50;;;0.50;;
74535;SDS011;63013;51.104;-115.370;2023-03-14T13:08:40;0.60;;;0.40;;
74535;SDS011;63013;51.104;-115.370;2023-03-14T13:11:20;0.60;;;0.50;;
74535;SDS011;63013;51.104;-115.370;2023-03-14T13:13:56;0.60;;;0.40;;
74535;SDS011;63013;51.104;-115.370;2023-03-14T13:16:25;1.00;;;0.50;;
74535;SDS011;63013;51.104;-115.370;2023-03-14T13:19:16;0.90;;;0.50;;
74535;SDS011;63013;51.104;-115.370;2023-03-14T13:21:51;0.60;;;0.50;;
74535;SDS011;63013;51.104;-115.370;2023-03-14T13:24:28;0.80;;;0.40;;
74535;SDS011;63013;51.104;-115.370;2023-03-14T13:26:57;0.90;;;0.40;;
74535;SDS011;63013;51.104;-115.370;2023-03-14T13:29:29;0.60;;;0.30;;
74535;SDS011;63013;51.104;-115.370;2023-03-14T13:32:13;1.00;;;0.50;;
74535;SDS011;63013;51.104;-115.370;2023-03-14T13:34:45;0.90;;;0.40;;
74535;SDS011;63013;51.104;-115.370;2023-03-14T13:37:21;0.50;;;0.40;;
74535;SDS011;63013;51.104;-115.370;2023-03-14T13:39:52;1.00;;;0.60;;
74535;SDS011;63013;51.104;-115.370;2023-03-14T13:42:25;0.50;;;0.40;;
74535;SDS011;63013;51.104;-115.370;2023-03-14T13:44:56;0.60;;;0.40;;
74535;SDS011;63013;51.104;-115.370;2023-03-14T13:47:25;0.60;;;0.50;;
74535;SDS011;63013;51.104;-115.370;2023-03-14T13:49:53;0.80;;;0.30;;
74535;SDS011;63013;51.104;-115.370;2023-03-14T13:55:13;0.60;;;0.40;;
74535;SDS011;63013;51.104;-115.370;2023-03-14T13:57:49;0.50;;;0.40;;
74535;SDS011;63013;51.104;-115.370;2023-03-14T14:00:26;0.70;;;0.40;;
74535;SDS011;63013;51.104;-115.370;2023-03-14T14:02:58;0.50;;;0.30;;
74535;SDS011;63013;51.104;-115.370;2023-03-14T14:05:28;0.60;;;0.50;;
74535;SDS011;63013;51.104;-115.370;2023-03-14T14:07:58;0.60;;;0.40;;
74535;SDS011;63013;51.104;-115.370;2023-03-14T14:10:26;0.50;;;0.40;;
74535;SDS011;63013;51.104;-115.370;2023-03-14T14:13:02;0.50;;;0.40;;
74535;SDS011;63013;51.104;-115.370;2023-03-14T14:15:36;0.50;;;0.40;;
74535;SDS011;63013;51.104;-115.370;2023-03-14T14:18:12;0.60;;;0.50;;
74535;SDS011;63013;51.104;-115.370;2023-03-14T14:20:45;0.80;;;0.50;;
74535;SDS011;63013;51.104;-115.370;2023-03-14T14:23:18;0.60;;;0.30;;
74535;SDS011;63013;51.104;-115.370;2023-03-14T14:25:51;0.50;;;0.50;;
74535;SDS011;63013;51.104;-115.370;2023-03-14T14:28:31;0.60;;;0.40;;
74535;SDS011;63013;51.104;-115.370;2023-03-14T14:31:20;0.70;;;0.40;;
74535;SDS011;63013;51.104;-115.370;2023-03-14T14:34:04;0.50;;;0.40;;
74535;SDS011;63013;51.104;-115.370;2023-03-14T14:36:39;0.40;;;0.40;;
74535;SDS011;63013;51.104;-115.370;2023-03-14T14:41:54;0.50;;;0.40;;
74535;SDS011;63013;51.104;-115.370;2023-03-14T14:44:30;0.50;;;0.30;;
74535;SDS011;63013;51.104;-115.370;2023-03-14T14:47:02;0.50;;;0.30;;
74535;SDS011;63013;51.104;-115.370;2023-03-14T14:49:32;0.30;;;0.30;;
74535;SDS011;63013;51.104;-115.370;2023-03-14T14:52:19;0.40;;;0.30;;
74535;SDS011;63013;51.104;-115.370;2023-03-14T14:55:17;0.80;;;0.40;;
74535;SDS011;63013;51.104;-115.370;2023-03-14T14:57:53;1.00;;;0.40;;
74535;SDS011;63013;51.104;-115.370;2023-03-14T15:00:26;0.40;;;0.30;;
74535;SDS011;63013;51.104;-115.370;2023-03-14T15:02:59;0.30;;;0.30;;
74535;SDS011;63013;51.104;-115.370;2023-03-14T15:05:27;0.30;;;0.30;;
74535;SDS011;63013;51.104;-115.370;2023-03-14T15:08:01;0.30;;;0.30;;
74535;SDS011;63013;51.104;-115.370;2023-03-14T15:10:29;0.70;;;0.40;;
74535;SDS011;63013;51.104;-115.370;2023-03-14T15:12:56;0.40;;;0.30;;
74535;SDS011;63013;51.104;-115.370;2023-03-14T15:15:23;0.30;;;0.30;;
74535;SDS011;63013;51.104;-115.370;2023-03-14T15:17:50;0.60;;;0.30;;
74535;SDS011;63013;51.104;-115.370;2023-03-14T15:20:18;0.40;;;0.30;;